sensor_id;sensor_type;location;lat;lon;timestamp;pressure;altitude;pressure_sealevel;temperature;humidity
76553;BME280;65395;53.168;18.156;2023-12-20T00:01:02;100133.92;;;6.18;97.69
76553;BME280;65395;53.168;18.156;2023-12-20T00:03:41;100133.18;;;6.19;97.76
76553;BME280;65395;53.168;18.156;2023-12-20T00:06:08;100125.11;;;6.19;97.73
76553;BME280;65395;53.168;18.156;2023-12-20T00:08:35;100127.64;;;6.20;97.74
76553;BME280;65395;53.168;18.156;2023-12-20T00:11:02;100134.11;;;6.21;97.74
76553;BME280;65395;53.168;18.156;2023-12-20T00:13:29;100133.70;;;6.22;97.77
76553;BME280;65395;53.168;18.156;2023-12-20T00:15:56;100133.08;;;6.23;97.68
76553;BME280;65395;53.168;18.156;2023-12-20T00:18:23;100136.21;;;6.23;97.62
76553;BME280;65395;53.168;18.156;2023-12-20T00:20:50;100134.64;;;6.23;97.72
76553;BME280;65395;53.168;18.156;2023-12-20T00:23:17;100135.94;;;6.24;97.71
76553;BME280;65395;53.168;18.156;2023-12-20T00:25:44;100130.23;;;6.24;97.70
76553;BME280;65395;53.168;18.156;2023-12-20T00:28:11;100128.77;;;6.24;97.66
76553;BME280;65395;53.168;18.156;2023-12-20T00:30:38;100117.20;;;6.25;97.71
76553;BME280;65395;53.168;18.156;2023-12-20T00:33:05;100116.00;;;6.25;97.87
76553;BME280;65395;53.168;18.156;2023-12-20T00:35:32;100115.52;;;6.25;97.88
76553;BME280;65395;53.168;18.156;2023-12-20T00:37:59;100106.78;;;6.25;97.93
76553;BME280;65395;53.168;18.156;2023-12-20T00:40:26;100112.75;;;6.25;97.97
76553;BME280;65395;53.168;18.156;2023-12-20T00:42:53;100107.36;;;6.25;98.06
76553;BME280;65395;53.168;18.156;2023-12-20T00:45:19;100106.52;;;6.25;98.08
76553;BME280;65395;53.168;18.156;2023-12-20T00:47:46;100106.36;;;6.25;98.02
76553;BME280;65395;53.168;18.156;2023-12-20T00:50:13;100111.02;;;6.25;98.03
76553;BME280;65395;53.168;18.156;2023-12-20T00:52:40;100114.27;;;6.25;98.03
76553;BME280;65395;53.168;18.156;2023-12-20T00:55:07;100112.38;;;6.26;97.99
76553;BME280;65395;53.168;18.156;2023-12-20T00:57:34;100108.02;;;6.27;98.01
76553;BME280;65395;53.168;18.156;2023-12-20T01:00:02;100101.36;;;6.29;97.99
76553;BME280;65395;53.168;18.156;2023-12-20T01:02:29;100102.92;;;6.30;97.93
76553;BME280;65395;53.168;18.156;2023-12-20T01:04:56;100106.13;;;6.31;97.89
76553;BME280;65395;53.168;18.156;2023-12-20T01:07:23;100103.56;;;6.32;97.84
76553;BME280;65395;53.168;18.156;2023-12-20T01:09:50;100098.20;;;6.32;97.85
76553;BME280;65395;53.168;18.156;2023-12-20T01:12:17;100097.84;;;6.32;97.84
76553;BME280;65395;53.168;18.156;2023-12-20T01:14:44;100094.75;;;6.32;97.84
76553;BME280;65395;53.168;18.156;2023-12-20T01:17:12;100086.70;;;6.31;97.81
76553;BME280;65395;53.168;18.156;2023-12-20T01:19:39;100087.13;;;6.32;97.86
76553;BME280;65395;53.168;18.156;2023-12-20T01:22:06;100084.65;;;6.32;97.90
76553;BME280;65395;53.168;18.156;2023-12-20T01:24:33;100082.80;;;6.32;97.92
76553;BME280;65395;53.168;18.156;2023-12-20T01:27:00;100084.12;;;6.34;97.89
76553;BME280;65395;53.168;18.156;2023-12-20T01:29:26;100080.45;;;6.34;97.93
76553;BME280;65395;53.168;18.156;2023-12-20T01:31:53;100084.95;;;6.35;97.84
76553;BME280;65395;53.168;18.156;2023-12-20T01:34:20;100085.27;;;6.35;97.88
76553;BME280;65395;53.168;18.156;2023-12-20T01:36:47;100079.98;;;6.36;97.81
76553;BME280;65395;53.168;18.156;2023-12-20T01:39:14;100073.20;;;6.36;97.84
76553;BME280;65395;53.168;18.156;2023-12-20T01:41:41;100072.59;;;6.37;97.86
76553;BME280;65395;53.168;18.156;2023-12-20T01:44:08;100073.17;;;6.38;97.86
76553;BME280;65395;53.168;18.156;2023-12-20T01:46:35;100066.39;;;6.38;97.99
76553;BME280;65395;53.168;18.156;2023-12-20T01:49:02;100061.79;;;6.39;98.03
76553;BME280;65395;53.168;18.156;2023-12-20T01:51:29;100059.95;;;6.39;98.08
76553;BME280;65395;53.168;18.156;2023-12-20T01:53:57;100058.64;;;6.41;98.17
76553;BME280;65395;53.168;18.156;2023-12-20T01:56:25;100051.46;;;6.42;98.15
76553;BME280;65395;53.168;18.156;2023-12-20T01:58:53;100058.52;;;6.42;98.12
76553;BME280;65395;53.168;18.156;2023-12-20T02:01:21;100051.05;;;6.42;98.10
76553;BME280;65395;53.168;18.156;2023-12-20T02:03:49;100053.34;;;6.42;98.08
76553;BME280;65395;53.168;18.156;2023-12-20T02:06:18;100048.19;;;6.38;98.02
76553;BME280;65395;53.168;18.156;2023-12-20T02:08:45;100053.45;;;6.41;98.08
76553;BME280;65395;53.168;18.156;2023-12-20T02:11:12;100059.11;;;6.41;98.07
76553;BME280;65395;53.168;18.156;2023-12-20T02:13:38;100057.70;;;6.40;98.07
76553;BME280;65395;53.168;18.156;2023-12-20T02:16:05;100058.52;;;6.41;98.18
76553;BME280;65395;53.168;18.156;2023-12-20T02:18:34;100050.51;;;6.41;98.13
76553;BME280;65395;53.168;18.156;2023-12-20T02:21:01;100043.40;;;6.41;98.12
76553;BME280;65395;53.168;18.156;2023-12-20T02:23:27;100037.64;;;6.41;98.13
76553;BME280;65395;53.168;18.156;2023-12-20T02:25:55;100039.48;;;6.41;98.06
76553;BME280;65395;53.168;18.156;2023-12-20T02:28:22;100035.20;;;6.40;98.10
76553;BME280;65395;53.168;18.156;2023-12-20T02:30:50;100036.33;;;6.41;98.10
76553;BME280;65395;53.168;18.156;2023-12-20T02:33:16;100033.08;;;6.41;98.05
76553;BME280;65395;53.168;18.156;2023-12-20T02:35:43;100032.35;;;6.41;98.02
76553;BME280;65395;53.168;18.156;2023-12-20T02:38:11;100035.55;;;6.42;98.04
76553;BME280;65395;53.168;18.156;2023-12-20T02:40:38;100027.37;;;6.43;98.06
76553;BME280;65395;53.168;18.156;2023-12-20T02:43:04;100030.60;;;6.43;97.99
76553;BME280;65395;53.168;18.156;2023-12-20T02:45:31;100026.32;;;6.43;97.98
76553;BME280;65395;53.168;18.156;2023-12-20T02:47:58;100028.09;;;6.43;97.99
76553;BME280;65395;53.168;18.156;2023-12-20T02:50:25;100026.15;;;6.43;97.97
76553;BME280;65395;53.168;18.156;2023-12-20T02:52:52;100026.42;;;6.42;97.98
76553;BME280;65395;53.168;18.156;2023-12-20T02:55:19;100023.27;;;6.43;98.00
76553;BME280;65395;53.168;18.156;2023-12-20T02:57:46;100023.70;;;6.43;98.14
76553;BME280;65395;53.168;18.156;2023-12-20T03:00:13;100025.63;;;6.43;98.22
76553;BME280;65395;53.168;18.156;2023-12-20T03:02:40;100024.06;;;6.44;98.32
76553;BME280;65395;53.168;18.156;2023-12-20T03:05:07;100023.80;;;6.44;98.38
76553;BME280;65395;53.168;18.156;2023-12-20T03:07:36;100019.48;;;6.45;98.37
76553;BME280;65395;53.168;18.156;2023-12-20T03:10:04;100011.91;;;6.44;98.40
76553;BME280;65395;53.168;18.156;2023-12-20T03:12:32;100010.92;;;6.44;98.38
76553;BME280;65395;53.168;18.156;2023-12-20T03:14:59;100010.81;;;6.44;98.29
76553;BME280;65395;53.168;18.156;2023-12-20T03:17:26;100013.06;;;6.44;98.22
76553;BME280;65395;53.168;18.156;2023-12-20T03:19:53;100007.94;;;6.44;98.22
76553;BME280;65395;53.168;18.156;2023-12-20T03:22:20;100010.60;;;6.45;98.23
76553;BME280;65395;53.168;18.156;2023-12-20T03:24:47;100015.30;;;6.45;98.20
76553;BME280;65395;53.168;18.156;2023-12-20T03:27:14;100015.52;;;6.45;98.11
76553;BME280;65395;53.168;18.156;2023-12-20T03:29:41;100016.47;;;6.44;98.07
76553;BME280;65395;53.168;18.156;2023-12-20T03:32:08;100013.95;;;6.44;98.05
76553;BME280;65395;53.168;18.156;2023-12-20T03:34:35;100013.02;;;6.44;98.08
76553;BME280;65395;53.168;18.156;2023-12-20T03:37:02;100008.51;;;6.44;98.01
76553;BME280;65395;53.168;18.156;2023-12-20T03:39:29;100005.99;;;6.43;98.03
76553;BME280;65395;53.168;18.156;2023-12-20T03:41:56;100005.84;;;6.44;98.01
76553;BME280;65395;53.168;18.156;2023-12-20T03:44:23;100004.44;;;6.44;97.87
76553;BME280;65395;53.168;18.156;2023-12-20T03:46:50;100007.67;;;6.45;97.87
76553;BME280;65395;53.168;18.156;2023-12-20T03:49:17;100009.83;;;6.44;97.85
76553;BME280;65395;53.168;18.156;2023-12-20T03:51:44;100008.67;;;6.45;97.79
76553;BME280;65395;53.168;18.156;2023-12-20T03:54:11;100009.34;;;6.45;97.81
76553;BME280;65395;53.168;18.156;2023-12-20T03:56:38;100006.41;;;6.45;97.63
76553;BME280;65395;53.168;18.156;2023-12-20T03:59:04;100010.45;;;6.44;97.38
76553;BME280;65395;53.168;18.156;2023-12-20T04:01:31;100008.30;;;6.43;97.39
76553;BME280;65395;53.168;18.156;2023-12-20T04:03:58;100008.47;;;6.42;97.45
76553;BME280;65395;53.168;18.156;2023-12-20T04:06:25;100005.48;;;6.43;97.33
76553;BME280;65395;53.168;18.156;2023-12-20T04:08:52;100008.48;;;6.42;97.30
76553;BME280;65395;53.168;18.156;2023-12-20T04:11:19;100010.88;;;6.42;97.21
76553;BME280;65395;53.168;18.156;2023-12-20T04:13:46;100013.08;;;6.42;97.15
76553;BME280;65395;53.168;18.156;2023-12-20T04:16:12;100011.05;;;6.41;97.15
76553;BME280;65395;53.168;18.156;2023-12-20T04:18:40;100009.57;;;6.41;97.18
76553;BME280;65395;53.168;18.156;2023-12-20T04:21:06;100007.73;;;6.41;97.19
76553;BME280;65395;53.168;18.156;2023-12-20T04:23:34;100003.98;;;6.42;97.06
76553;BME280;65395;53.168;18.156;2023-12-20T04:26:00;100001.63;;;6.40;97.01
76553;BME280;65395;53.168;18.156;2023-12-20T04:28:27;100006.74;;;6.41;97.07
76553;BME280;65395;53.168;18.156;2023-12-20T04:30:56;100001.77;;;6.41;97.09
76553;BME280;65395;53.168;18.156;2023-12-20T04:33:23;100003.45;;;6.40;96.97
76553;BME280;65395;53.168;18.156;2023-12-20T04:35:51;100006.41;;;6.38;96.96
76553;BME280;65395;53.168;18.156;2023-12-20T04:38:18;100008.45;;;6.35;96.87
76553;BME280;65395;53.168;18.156;2023-12-20T04:40:44;100006.38;;;6.32;96.90
76553;BME280;65395;53.168;18.156;2023-12-20T04:43:11;100006.62;;;6.31;96.92
76553;BME280;65395;53.168;18.156;2023-12-20T04:45:38;100007.55;;;6.31;96.97
76553;BME280;65395;53.168;18.156;2023-12-20T04:48:06;100008.35;;;6.30;96.94
76553;BME280;65395;53.168;18.156;2023-12-20T04:50:32;100007.73;;;6.30;96.92
76553;BME280;65395;53.168;18.156;2023-12-20T04:53:00;100008.83;;;6.30;96.95
76553;BME280;65395;53.168;18.156;2023-12-20T04:55:27;100017.66;;;6.30;96.99
76553;BME280;65395;53.168;18.156;2023-12-20T04:57:54;100015.14;;;6.30;97.01
76553;BME280;65395;53.168;18.156;2023-12-20T05:00:21;100016.98;;;6.30;96.95
76553;BME280;65395;53.168;18.156;2023-12-20T05:02:48;100013.11;;;6.30;97.03
76553;BME280;65395;53.168;18.156;2023-12-20T05:05:15;100011.48;;;6.30;97.05
76553;BME280;65395;53.168;18.156;2023-12-20T05:07:44;100017.86;;;6.31;96.97
76553;BME280;65395;53.168;18.156;2023-12-20T05:10:11;100023.20;;;6.30;97.00
76553;BME280;65395;53.168;18.156;2023-12-20T05:12:37;100020.50;;;6.30;96.99
76553;BME280;65395;53.168;18.156;2023-12-20T05:15:06;100017.83;;;6.29;96.93
76553;BME280;65395;53.168;18.156;2023-12-20T05:17:33;100017.15;;;6.28;96.77
76553;BME280;65395;53.168;18.156;2023-12-20T05:20:00;100015.95;;;6.27;96.77
76553;BME280;65395;53.168;18.156;2023-12-20T05:22:27;100012.35;;;6.26;96.38
76553;BME280;65395;53.168;18.156;2023-12-20T05:24:54;100013.52;;;6.23;96.27
76553;BME280;65395;53.168;18.156;2023-12-20T05:27:21;100009.86;;;6.21;96.12
76553;BME280;65395;53.168;18.156;2023-12-20T05:29:48;100013.33;;;6.20;96.16
76553;BME280;65395;53.168;18.156;2023-12-20T05:32:14;100010.35;;;6.18;95.95
76553;BME280;65395;53.168;18.156;2023-12-20T05:34:41;100013.56;;;6.16;95.80
76553;BME280;65395;53.168;18.156;2023-12-20T05:37:08;100012.02;;;6.13;95.69
76553;BME280;65395;53.168;18.156;2023-12-20T05:39:35;100020.02;;;6.11;95.69
76553;BME280;65395;53.168;18.156;2023-12-20T05:42:02;100025.69;;;6.08;95.66
76553;BME280;65395;53.168;18.156;2023-12-20T05:44:29;100021.73;;;6.06;95.61
76553;BME280;65395;53.168;18.156;2023-12-20T05:46:56;100013.64;;;6.03;95.60
76553;BME280;65395;53.168;18.156;2023-12-20T05:49:23;100016.19;;;5.97;95.35
76553;BME280;65395;53.168;18.156;2023-12-20T05:51:50;100018.23;;;5.92;95.33
76553;BME280;65395;53.168;18.156;2023-12-20T05:54:17;100016.17;;;5.87;95.22
76553;BME280;65395;53.168;18.156;2023-12-20T05:56:45;100009.60;;;5.76;94.63
76553;BME280;65395;53.168;18.156;2023-12-20T05:59:11;100014.57;;;5.66;94.72
76553;BME280;65395;53.168;18.156;2023-12-20T06:01:38;100017.73;;;5.57;94.74
76553;BME280;65395;53.168;18.156;2023-12-20T06:04:05;100016.09;;;5.47;94.68
76553;BME280;65395;53.168;18.156;2023-12-20T06:06:32;100019.98;;;5.37;94.78
76553;BME280;65395;53.168;18.156;2023-12-20T06:08:59;100019.13;;;5.28;94.73
76553;BME280;65395;53.168;18.156;2023-12-20T06:11:26;100011.52;;;5.21;94.79
76553;BME280;65395;53.168;18.156;2023-12-20T06:13:54;100002.96;;;5.15;94.92
76553;BME280;65395;53.168;18.156;2023-12-20T06:16:20;100002.08;;;5.09;94.88
76553;BME280;65395;53.168;18.156;2023-12-20T06:18:47;99998.95;;;5.02;94.93
76553;BME280;65395;53.168;18.156;2023-12-20T06:21:14;100005.28;;;4.96;94.92
76553;BME280;65395;53.168;18.156;2023-12-20T06:23:41;100010.20;;;4.90;94.87
76553;BME280;65395;53.168;18.156;2023-12-20T06:26:08;100008.75;;;4.84;94.91
76553;BME280;65395;53.168;18.156;2023-12-20T06:28:35;100009.27;;;4.80;95.01
76553;BME280;65395;53.168;18.156;2023-12-20T06:31:02;100009.89;;;4.76;95.07
76553;BME280;65395;53.168;18.156;2023-12-20T06:33:30;100013.09;;;4.73;95.11
76553;BME280;65395;53.168;18.156;2023-12-20T06:35:57;100014.55;;;4.68;95.09
76553;BME280;65395;53.168;18.156;2023-12-20T06:38:24;100016.27;;;4.61;95.03
76553;BME280;65395;53.168;18.156;2023-12-20T06:40:51;100018.77;;;4.55;95.10
76553;BME280;65395;53.168;18.156;2023-12-20T06:43:18;100023.16;;;4.51;95.16
76553;BME280;65395;53.168;18.156;2023-12-20T06:45:45;100025.49;;;4.44;95.02
76553;BME280;65395;53.168;18.156;2023-12-20T06:48:12;100026.69;;;4.37;95.11
76553;BME280;65395;53.168;18.156;2023-12-20T06:50:40;100021.72;;;4.33;95.33
76553;BME280;65395;53.168;18.156;2023-12-20T06:53:07;100019.52;;;4.30;95.52
76553;BME280;65395;53.168;18.156;2023-12-20T06:55:35;100010.04;;;4.27;95.58
76553;BME280;65395;53.168;18.156;2023-12-20T06:58:04;100008.61;;;4.22;95.65
76553;BME280;65395;53.168;18.156;2023-12-20T07:00:32;100008.96;;;4.18;95.74
76553;BME280;65395;53.168;18.156;2023-12-20T07:03:00;100011.67;;;4.14;95.78
76553;BME280;65395;53.168;18.156;2023-12-20T07:05:27;100015.16;;;4.10;95.85
76553;BME280;65395;53.168;18.156;2023-12-20T07:07:54;100021.89;;;4.10;96.27
76553;BME280;65395;53.168;18.156;2023-12-20T07:10:21;100018.71;;;4.09;96.31
76553;BME280;65395;53.168;18.156;2023-12-20T07:12:48;100025.95;;;4.07;96.29
76553;BME280;65395;53.168;18.156;2023-12-20T07:15:15;100028.34;;;4.04;96.28
76553;BME280;65395;53.168;18.156;2023-12-20T07:17:42;100028.85;;;4.02;96.49
76553;BME280;65395;53.168;18.156;2023-12-20T07:20:10;100029.17;;;4.00;96.36
76553;BME280;65395;53.168;18.156;2023-12-20T07:22:38;100029.68;;;3.98;96.48
76553;BME280;65395;53.168;18.156;2023-12-20T07:25:06;100032.98;;;3.97;96.54
76553;BME280;65395;53.168;18.156;2023-12-20T07:27:33;100035.04;;;3.95;96.58
76553;BME280;65395;53.168;18.156;2023-12-20T07:30:00;100034.52;;;3.93;96.58
76553;BME280;65395;53.168;18.156;2023-12-20T07:32:27;100039.31;;;3.92;96.56
76553;BME280;65395;53.168;18.156;2023-12-20T07:34:54;100040.29;;;3.90;96.59
76553;BME280;65395;53.168;18.156;2023-12-20T07:37:21;100037.21;;;3.89;96.60
76553;BME280;65395;53.168;18.156;2023-12-20T07:39:48;100038.05;;;3.88;96.59
76553;BME280;65395;53.168;18.156;2023-12-20T07:42:15;100037.84;;;3.87;96.66
76553;BME280;65395;53.168;18.156;2023-12-20T07:44:42;100035.69;;;3.85;96.54
76553;BME280;65395;53.168;18.156;2023-12-20T07:47:09;100036.46;;;3.85;96.55
76553;BME280;65395;53.168;18.156;2023-12-20T07:49:36;100031.86;;;3.84;96.69
76553;BME280;65395;53.168;18.156;2023-12-20T07:52:03;100026.45;;;3.83;96.56
76553;BME280;65395;53.168;18.156;2023-12-20T07:54:30;100033.18;;;3.83;96.62
76553;BME280;65395;53.168;18.156;2023-12-20T07:56:57;100030.56;;;3.83;96.84
76553;BME280;65395;53.168;18.156;2023-12-20T07:59:24;100025.09;;;3.83;97.02
76553;BME280;65395;53.168;18.156;2023-12-20T08:01:51;100019.30;;;3.82;97.00
76553;BME280;65395;53.168;18.156;2023-12-20T08:04:18;100021.34;;;3.82;97.09
76553;BME280;65395;53.168;18.156;2023-12-20T08:06:45;100029.42;;;3.82;97.13
76553;BME280;65395;53.168;18.156;2023-12-20T08:09:12;100026.45;;;3.82;97.21
76553;BME280;65395;53.168;18.156;2023-12-20T08:11:39;100032.02;;;3.82;97.34
76553;BME280;65395;53.168;18.156;2023-12-20T08:14:06;100034.73;;;3.83;97.49
76553;BME280;65395;53.168;18.156;2023-12-20T08:16:33;100023.27;;;3.84;97.45
76553;BME280;65395;53.168;18.156;2023-12-20T08:19:00;100025.00;;;3.85;97.50
76553;BME280;65395;53.168;18.156;2023-12-20T08:21:27;100020.89;;;3.85;97.45
76553;BME280;65395;53.168;18.156;2023-12-20T08:23:54;100020.83;;;3.86;97.46
76553;BME280;65395;53.168;18.156;2023-12-20T08:26:21;100026.20;;;3.87;97.46
76553;BME280;65395;53.168;18.156;2023-12-20T08:28:50;100026.11;;;3.88;97.43
76553;BME280;65395;53.168;18.156;2023-12-20T08:31:17;100019.11;;;3.88;97.44
76553;BME280;65395;53.168;18.156;2023-12-20T08:33:46;100017.45;;;3.89;97.43
76553;BME280;65395;53.168;18.156;2023-12-20T08:36:13;100019.80;;;3.91;97.45
76553;BME280;65395;53.168;18.156;2023-12-20T08:38:40;100013.98;;;3.94;97.45
76553;BME280;65395;53.168;18.156;2023-12-20T08:41:07;100016.33;;;3.96;97.49
76553;BME280;65395;53.168;18.156;2023-12-20T08:43:34;100020.77;;;3.98;97.42
76553;BME280;65395;53.168;18.156;2023-12-20T08:46:02;100026.17;;;4.00;97.54
76553;BME280;65395;53.168;18.156;2023-12-20T08:48:29;100025.93;;;4.00;97.52
76553;BME280;65395;53.168;18.156;2023-12-20T08:50:56;100018.63;;;4.00;97.50
76553;BME280;65395;53.168;18.156;2023-12-20T08:53:23;100017.70;;;4.02;97.53
76553;BME280;65395;53.168;18.156;2023-12-20T08:55:51;100010.04;;;4.02;97.59
76553;BME280;65395;53.168;18.156;2023-12-20T08:58:18;100014.46;;;4.06;97.59
76553;BME280;65395;53.168;18.156;2023-12-20T09:00:45;100010.83;;;4.10;97.61
76553;BME280;65395;53.168;18.156;2023-12-20T09:03:12;100013.13;;;4.15;97.53
76553;BME280;65395;53.168;18.156;2023-12-20T09:05:39;100013.25;;;4.22;97.53
76553;BME280;65395;53.168;18.156;2023-12-20T09:08:06;100013.84;;;4.29;97.46
76553;BME280;65395;53.168;18.156;2023-12-20T09:10:34;100008.21;;;4.35;97.28
76553;BME280;65395;53.168;18.156;2023-12-20T09:13:01;100004.22;;;4.40;97.05
76553;BME280;65395;53.168;18.156;2023-12-20T09:15:28;99995.33;;;4.40;96.73
76553;BME280;65395;53.168;18.156;2023-12-20T09:17:56;99991.84;;;4.43;96.47
76553;BME280;65395;53.168;18.156;2023-12-20T09:20:23;99998.46;;;4.47;96.53
76553;BME280;65395;53.168;18.156;2023-12-20T09:22:50;100007.70;;;4.53;96.61
76553;BME280;65395;53.168;18.156;2023-12-20T09:25:17;100001.45;;;4.64;96.47
76553;BME280;65395;53.168;18.156;2023-12-20T09:27:44;99995.23;;;4.75;96.33
76553;BME280;65395;53.168;18.156;2023-12-20T09:30:12;99992.92;;;4.85;96.07
76553;BME280;65395;53.168;18.156;2023-12-20T09:32:39;99990.45;;;4.93;95.62
76553;BME280;65395;53.168;18.156;2023-12-20T09:35:06;99986.07;;;5.00;95.03
76553;BME280;65395;53.168;18.156;2023-12-20T09:37:35;99984.95;;;5.08;93.92
76553;BME280;65395;53.168;18.156;2023-12-20T09:40:03;99987.60;;;5.10;93.59
76553;BME280;65395;53.168;18.156;2023-12-20T09:42:46;99984.05;;;5.13;93.52
76553;BME280;65395;53.168;18.156;2023-12-20T09:45:20;99989.69;;;5.19;93.17
76553;BME280;65395;53.168;18.156;2023-12-20T09:47:49;99993.52;;;5.26;92.94
76553;BME280;65395;53.168;18.156;2023-12-20T09:50:18;99980.97;;;5.30;92.91
76553;BME280;65395;53.168;18.156;2023-12-20T09:52:50;99973.27;;;5.33;92.84
76553;BME280;65395;53.168;18.156;2023-12-20T09:55:18;99965.22;;;5.36;92.74
76553;BME280;65395;53.168;18.156;2023-12-20T09:57:47;99963.64;;;5.41;92.47
76553;BME280;65395;53.168;18.156;2023-12-20T10:00:14;99964.28;;;5.48;92.01
76553;BME280;65395;53.168;18.156;2023-12-20T10:02:49;99962.56;;;5.48;89.67
76553;BME280;65395;53.168;18.156;2023-12-20T10:05:17;99950.83;;;5.43;90.20
76553;BME280;65395;53.168;18.156;2023-12-20T10:07:47;99942.05;;;5.41;90.69
76553;BME280;65395;53.168;18.156;2023-12-20T10:10:14;99937.66;;;5.43;90.70
76553;BME280;65395;53.168;18.156;2023-12-20T10:13:01;99937.17;;;5.44;90.97
76553;BME280;65395;53.168;18.156;2023-12-20T10:15:28;99933.23;;;5.51;91.09
76553;BME280;65395;53.168;18.156;2023-12-20T10:17:56;99930.05;;;5.59;90.90
76553;BME280;65395;53.168;18.156;2023-12-20T10:20:23;99933.58;;;5.66;90.03
76553;BME280;65395;53.168;18.156;2023-12-20T10:22:51;99924.65;;;5.72;89.25
76553;BME280;65395;53.168;18.156;2023-12-20T10:25:20;99916.14;;;5.78;88.87
76553;BME280;65395;53.168;18.156;2023-12-20T10:27:50;99916.43;;;5.87;88.97
76553;BME280;65395;53.168;18.156;2023-12-20T10:30:34;99915.72;;;5.92;87.89
76553;BME280;65395;53.168;18.156;2023-12-20T10:33:02;99909.05;;;5.95;87.47
76553;BME280;65395;53.168;18.156;2023-12-20T10:35:29;99901.64;;;5.93;87.40
76553;BME280;65395;53.168;18.156;2023-12-20T10:37:56;99898.08;;;5.94;88.41
76553;BME280;65395;53.168;18.156;2023-12-20T10:40:25;99897.50;;;5.94;87.54
76553;BME280;65395;53.168;18.156;2023-12-20T10:42:54;99895.83;;;5.94;87.99
76553;BME280;65395;53.168;18.156;2023-12-20T10:45:22;99890.86;;;5.92;87.43
76553;BME280;65395;53.168;18.156;2023-12-20T10:47:50;99895.90;;;5.89;87.34
76553;BME280;65395;53.168;18.156;2023-12-20T10:50:19;99881.78;;;5.88;87.69
76553;BME280;65395;53.168;18.156;2023-12-20T10:52:47;99881.63;;;5.87;87.48
76553;BME280;65395;53.168;18.156;2023-12-20T10:55:14;99877.40;;;5.87;87.52
76553;BME280;65395;53.168;18.156;2023-12-20T10:57:42;99875.98;;;5.87;87.95
76553;BME280;65395;53.168;18.156;2023-12-20T11:00:11;99866.14;;;5.89;88.06
76553;BME280;65395;53.168;18.156;2023-12-20T11:02:42;99861.42;;;5.90;88.38
76553;BME280;65395;53.168;18.156;2023-12-20T11:08:11;99856.23;;;5.90;88.43
76553;BME280;65395;53.168;18.156;2023-12-20T11:10:51;99852.45;;;5.87;87.85
76553;BME280;65395;53.168;18.156;2023-12-20T11:13:27;99838.87;;;5.85;87.96
76553;BME280;65395;53.168;18.156;2023-12-20T11:15:55;99833.21;;;5.84;87.84
76553;BME280;65395;53.168;18.156;2023-12-20T11:18:29;99828.23;;;5.82;87.81
76553;BME280;65395;53.168;18.156;2023-12-20T11:21:02;99820.15;;;5.81;87.81
76553;BME280;65395;53.168;18.156;2023-12-20T11:23:32;99821.36;;;5.80;88.13
76553;BME280;65395;53.168;18.156;2023-12-20T11:26:02;99817.29;;;5.78;88.30
76553;BME280;65395;53.168;18.156;2023-12-20T11:28:29;99816.98;;;5.77;87.93
76553;BME280;65395;53.168;18.156;2023-12-20T11:30:57;99810.15;;;5.75;87.98
76553;BME280;65395;53.168;18.156;2023-12-20T11:33:30;99809.80;;;5.72;87.90
76553;BME280;65395;53.168;18.156;2023-12-20T11:35:58;99801.46;;;5.70;87.99
76553;BME280;65395;53.168;18.156;2023-12-20T11:38:26;99799.68;;;5.68;87.78
76553;BME280;65395;53.168;18.156;2023-12-20T11:40:54;99791.38;;;5.67;87.50
76553;BME280;65395;53.168;18.156;2023-12-20T11:43:34;99786.22;;;5.65;87.20
76553;BME280;65395;53.168;18.156;2023-12-20T11:46:05;99777.48;;;5.65;87.85
76553;BME280;65395;53.168;18.156;2023-12-20T11:48:34;99773.39;;;5.68;88.14
76553;BME280;65395;53.168;18.156;2023-12-20T11:51:01;99776.31;;;5.69;87.59
76553;BME280;65395;53.168;18.156;2023-12-20T11:53:30;99770.60;;;5.70;87.64
76553;BME280;65395;53.168;18.156;2023-12-20T11:56:00;99767.46;;;5.70;88.10
76553;BME280;65395;53.168;18.156;2023-12-20T11:58:29;99760.93;;;5.70;87.94
76553;BME280;65395;53.168;18.156;2023-12-20T12:00:57;99758.42;;;5.69;88.13
76553;BME280;65395;53.168;18.156;2023-12-20T12:03:24;99751.37;;;5.69;88.24
76553;BME280;65395;53.168;18.156;2023-12-20T12:05:51;99750.95;;;5.68;88.60
76553;BME280;65395;53.168;18.156;2023-12-20T12:08:18;99745.94;;;5.68;88.63
76553;BME280;65395;53.168;18.156;2023-12-20T12:10:45;99741.86;;;5.68;88.81
76553;BME280;65395;53.168;18.156;2023-12-20T12:13:12;99743.09;;;5.66;88.58
76553;BME280;65395;53.168;18.156;2023-12-20T12:15:41;99741.44;;;5.63;88.67
76553;BME280;65395;53.168;18.156;2023-12-20T12:18:09;99740.66;;;5.60;89.01
76553;BME280;65395;53.168;18.156;2023-12-20T12:20:36;99738.58;;;5.60;89.19
76553;BME280;65395;53.168;18.156;2023-12-20T12:23:05;99730.81;;;5.57;89.21
76553;BME280;65395;53.168;18.156;2023-12-20T12:25:35;99723.67;;;5.54;89.20
76553;BME280;65395;53.168;18.156;2023-12-20T12:28:04;99723.96;;;5.50;89.15
76553;BME280;65395;53.168;18.156;2023-12-20T12:30:30;99720.96;;;5.48;89.59
76553;BME280;65395;53.168;18.156;2023-12-20T12:32:57;99714.14;;;5.45;89.50
76553;BME280;65395;53.168;18.156;2023-12-20T12:35:24;99714.47;;;5.42;89.66
76553;BME280;65395;53.168;18.156;2023-12-20T12:37:51;99707.46;;;5.40;89.99
76553;BME280;65395;53.168;18.156;2023-12-20T12:40:18;99701.82;;;5.41;90.06
76553;BME280;65395;53.168;18.156;2023-12-20T12:42:46;99702.30;;;5.40;90.08
76553;BME280;65395;53.168;18.156;2023-12-20T12:45:14;99702.68;;;5.39;90.06
76553;BME280;65395;53.168;18.156;2023-12-20T12:47:41;99694.02;;;5.37;90.22
76553;BME280;65395;53.168;18.156;2023-12-20T12:50:08;99690.04;;;5.37;90.22
76553;BME280;65395;53.168;18.156;2023-12-20T12:52:36;99685.10;;;5.34;90.22
76553;BME280;65395;53.168;18.156;2023-12-20T12:55:03;99682.45;;;5.33;90.44
76553;BME280;65395;53.168;18.156;2023-12-20T12:57:31;99680.83;;;5.34;90.60